Time;durP1;ratioP1;P1;durP2;ratioP2;P2;SDS_P1;SDS_P2;PMS_P1;PMS_P2;Temp;Humidity;BMP_temperature;BMP_pressure;BME280_temperature;BME280_humidity;BME280_pressure;Samples;Min_cycle;Max_cycle;Signal;HPM_P1;HPM_P2
2023/04/05 00:01:25;;;;;;;2.60;2.40;;;15.70;57.30;16.50;101537.00;;;;5029199;28;20206;-51
2023/04/05 00:03:53;;;;;;;2.40;2.20;;;15.70;57.30;16.50;101526.00;;;;5028966;28;20203;-51
2023/04/05 00:06:20;;;;;;;2.30;2.10;;;15.60;57.20;16.50;101532.00;;;;5028079;28;20211;-51
2023/04/05 00:08:48;;;;;;;3.50;2.20;;;15.60;57.30;16.50;101529.00;;;;5027937;28;20262;-51
2023/04/05 00:11:16;;;;;;;2.23;2.03;;;15.60;57.30;16.50;101532.00;;;;5040518;28;20186;-52
2023/04/05 00:13:42;;;;;;;2.37;2.17;;;15.60;57.30;16.40;101526.00;;;;5037000;28;20218;-51
2023/04/05 00:16:07;;;;;;;2.13;2.03;;;15.60;57.40;16.40;101515.00;;;;5031077;28;20579;-51
2023/04/05 00:18:33;;;;;;;2.30;2.10;;;15.50;57.30;16.40;101516.00;;;;5028651;28;20182;-51
2023/04/05 00:20:59;;;;;;;2.30;2.10;;;15.50;57.30;16.40;101519.00;;;;5030673;28;20175;-52
2023/04/05 00:23:25;;;;;;;2.37;2.07;;;15.50;57.30;16.40;101518.00;;;;5029738;28;20202;-51
2023/04/05 00:25:51;;;;;;;2.63;2.10;;;15.50;57.30;16.30;101512.00;;;;5043098;28;20272;-52
2023/04/05 00:28:17;;;;;;;2.50;2.30;;;15.50;57.30;16.30;101509.00;;;;5032679;28;20230;-50
2023/04/05 00:30:42;;;;;;;2.10;2.00;;;15.40;57.20;16.30;101508.00;;;;5029381;28;20174;-50
2023/04/05 00:33:08;;;;;;;2.30;2.10;;;15.50;57.30;16.30;101502.00;;;;5028688;28;20186;-51
2023/04/05 00:35:34;;;;;;;2.37;2.17;;;15.40;57.30;16.30;101512.00;;;;5028873;28;20254;-50
2023/04/05 00:38:00;;;;;;;2.30;2.10;;;15.40;57.30;16.30;101524.00;;;;5028911;28;20190;-51
2023/04/05 00:40:26;;;;;;;2.20;2.00;;;15.40;57.40;16.30;101522.00;;;;5028895;28;20163;-50
2023/04/05 00:42:52;;;;;;;2.10;2.00;;;15.40;57.40;16.30;101523.00;;;;5028348;28;20175;-51
2023/04/05 00:45:17;;;;;;;2.30;2.10;;;15.40;57.40;16.20;101514.00;;;;5028749;28;20193;-51
2023/04/05 00:47:43;;;;;;;2.17;2.03;;;15.40;57.50;16.20;101515.00;;;;5028468;28;20204;-51
2023/04/05 00:50:12;;;;;;;2.27;2.07;;;15.40;57.50;16.20;101521.00;;;;5027455;28;20541;-50
2023/04/05 00:52:41;;;;;;;2.20;2.00;;;15.30;57.40;16.20;101508.00;;;;5028803;28;20202;-49
2023/04/05 00:55:08;;;;;;;2.10;1.93;;;15.30;57.50;16.20;101489.00;;;;5027068;28;20193;-51
2023/04/05 00:57:37;;;;;;;2.30;2.10;;;15.30;57.50;16.10;101504.00;;;;5027411;28;20179;-51
2023/04/05 01:00:08;;;;;;;2.40;2.20;;;15.30;57.60;16.10;101496.00;;;;5029007;28;20255;-52
2023/04/05 01:02:38;;;;;;;2.03;1.93;;;15.30;57.50;16.10;101497.00;;;;5027312;28;20884;-50
2023/04/05 01:05:18;;;;;;;2.30;2.10;;;15.30;57.60;16.10;101491.00;;;;5027404;28;20195;-50
2023/04/05 01:07:55;;;;;;;2.10;1.97;;;15.30;57.60;16.10;101464.00;;;;5027390;28;20202;-50
2023/04/05 01:10:21;;;;;;;2.10;2.00;;;15.30;57.60;16.10;101494.00;;;;5031269;28;20167;-50
2023/04/05 01:12:47;;;;;;;2.30;2.10;;;15.20;57.60;16.10;101500.00;;;;5030745;28;20167;-51
2023/04/05 01:15:13;;;;;;;2.30;2.10;;;15.20;57.50;16.00;101494.00;;;;5031032;28;20253;-51
2023/04/05 01:17:40;;;;;;;2.30;2.10;;;15.20;57.60;16.00;101489.00;;;;5032376;28;20541;-51
2023/04/05 01:20:09;;;;;;;2.30;2.10;;;15.20;57.70;16.00;101497.00;;;;5032408;28;20170;-51
2023/04/05 01:22:46;;;;;;;2.53;2.10;;;15.20;57.70;16.00;101494.00;;;;5031988;28;20641;-51
2023/04/05 01:25:36;;;;;;;2.10;2.00;;;15.20;57.70;16.00;101492.00;;;;5032070;28;20308;-50
2023/04/05 01:28:42;;;;;;;2.10;1.90;;;15.20;57.60;16.00;101494.00;;;;5031872;28;20179;-50
2023/04/05 01:31:19;;;;;;;2.10;1.90;;;15.20;57.60;15.90;101498.00;;;;5031823;28;20179;-50
2023/04/05 01:34:28;;;;;;;1.90;1.80;;;15.10;57.60;15.90;101494.00;;;;5030471;28;20194;-50
2023/04/05 01:37:02;;;;;;;2.20;2.00;;;15.10;57.70;15.90;101492.00;;;;5031248;28;20179;-51
2023/04/05 01:39:28;;;;;;;2.13;2.00;;;15.10;57.70;15.80;101489.00;;;;5030773;28;20698;-51
2023/04/05 01:41:59;;;;;;;2.00;1.90;;;15.10;57.70;15.80;101477.00;;;;5030607;28;20179;-51
2023/04/05 01:44:24;;;;;;;2.00;1.80;;;15.10;57.70;15.80;101411.00;;;;5030314;28;20195;-50
2023/04/05 01:46:50;;;;;;;2.00;1.90;;;15.10;57.70;15.80;101494.00;;;;5031762;28;20295;-51
2023/04/05 01:49:16;;;;;;;2.00;1.90;;;15.10;57.70;15.80;101483.00;;;;5031917;28;20186;-50
2023/04/05 01:51:41;;;;;;;1.90;1.80;;;15.00;57.60;15.80;101489.00;;;;5031848;28;20190;-49
2023/04/05 01:54:08;;;;;;;2.00;1.90;;;15.00;57.60;15.80;101479.00;;;;5032791;28;20187;-51
2023/04/05 01:56:34;;;;;;;2.20;2.10;;;15.00;57.70;15.80;101468.00;;;;5033192;28;20171;-50
2023/04/05 01:58:59;;;;;;;2.00;1.90;;;15.00;57.70;15.80;101466.00;;;;5031583;28;20178;-51
2023/04/05 02:01:25;;;;;;;2.23;2.03;;;14.90;57.70;15.80;101466.00;;;;5030157;28;20175;-52
2023/04/05 02:03:51;;;;;;;1.90;1.80;;;14.90;57.70;15.70;101486.00;;;;5029976;28;20672;-52
2023/04/05 02:06:17;;;;;;;2.10;2.00;;;14.90;57.70;15.70;101479.00;;;;5031481;28;20220;-50
2023/04/05 02:08:42;;;;;;;1.93;1.83;;;14.90;57.70;15.70;101471.00;;;;5039600;28;20538;-52
2023/04/05 02:11:08;;;;;;;2.00;1.90;;;14.90;57.70;15.70;101475.00;;;;5039188;28;20167;-50
2023/04/05 02:13:34;;;;;;;1.90;1.80;;;14.90;57.80;15.70;101470.00;;;;5033348;28;20187;-50
2023/04/05 02:15:59;;;;;;;2.20;2.00;;;14.90;57.80;15.70;101475.00;;;;5032624;28;20244;-51
2023/04/05 02:18:37;;;;;;;2.20;2.10;;;14.80;57.80;15.70;101475.00;;;;5032091;28;20183;-51
2023/04/05 02:21:04;;;;;;;2.20;2.00;;;14.90;57.80;15.60;101477.00;;;;5032189;28;20213;-51
2023/04/05 02:23:30;;;;;;;2.10;2.00;;;14.80;57.70;15.60;101473.00;;;;5041760;28;20198;-52
2023/04/05 02:25:57;;;;;;;2.00;1.90;;;14.80;57.80;15.60;101470.00;;;;5038964;28;20186;-51
2023/04/05 02:28:23;;;;;;;2.03;1.93;;;14.80;57.80;15.60;101466.00;;;;5040892;28;20242;-50
2023/04/05 02:30:48;;;;;;;1.80;1.70;;;14.80;57.80;15.60;101470.00;;;;5040841;28;20175;-51
2023/04/05 02:33:14;;;;;;;1.70;1.60;;;14.80;57.80;15.60;101469.00;;;;5037337;28;20198;-50
2023/04/05 02:35:40;;;;;;;1.90;1.80;;;14.80;57.80;15.60;101464.00;;;;5031000;28;20178;-50
2023/04/05 02:38:06;;;;;;;2.00;1.90;;;14.80;58.40;15.50;101476.00;;;;5031018;28;20240;-50
2023/04/05 02:40:31;;;;;;;1.80;1.70;;;14.70;57.70;15.50;101469.00;;;;5031091;28;20204;-49
2023/04/05 02:42:57;;;;;;;2.00;1.90;;;14.80;58.00;15.50;101461.00;;;;5030792;28;20167;-50
2023/04/05 02:45:23;;;;;;;2.20;2.10;;;14.80;58.10;15.50;101463.00;;;;5031235;28;20175;-50
2023/04/05 02:47:49;;;;;;;1.90;1.80;;;14.70;58.10;15.50;101470.00;;;;5031128;28;20198;-50
2023/04/05 02:50:19;;;;;;;1.90;1.80;;;14.70;58.10;15.50;101472.00;;;;5030693;28;20186;-50
2023/04/05 02:52:46;;;;;;;1.73;1.63;;;14.70;58.10;15.50;101467.00;;;;5030425;28;20179;-50
2023/04/05 02:55:12;;;;;;;2.00;1.90;;;14.70;58.10;15.50;101470.00;;;;5028892;28;20699;-49
2023/04/05 02:57:38;;;;;;;1.80;1.70;;;14.70;58.10;15.50;101463.00;;;;5030198;28;20175;-51
2023/04/05 03:00:07;;;;;;;2.63;2.07;;;14.70;58.10;15.40;101464.00;;;;5030303;28;20613;-49
2023/04/05 03:02:32;;;;;;;2.23;2.03;;;14.70;58.20;15.40;101472.00;;;;5030187;28;20179;-50
2023/04/05 03:05:01;;;;;;;1.83;1.73;;;14.60;58.10;15.40;101467.00;;;;5030278;28;20186;-55
2023/04/05 03:07:27;;;;;;;2.20;2.00;;;14.60;58.20;15.40;101467.00;;;;5030214;28;20199;-50
2023/04/05 03:09:52;;;;;;;2.00;1.90;;;14.60;58.10;15.40;101471.00;;;;5030124;28;20175;-51
2023/04/05 03:12:18;;;;;;;2.20;2.00;;;14.50;58.10;15.40;101464.00;;;;5029615;28;20171;-51
2023/04/05 03:14:45;;;;;;;1.90;1.80;;;14.50;58.10;15.40;101459.00;;;;5029936;28;20222;-51
2023/04/05 03:17:11;;;;;;;2.10;1.90;;;14.60;58.20;15.30;101455.00;;;;5030362;28;20197;-51
2023/04/05 03:19:37;;;;;;;2.00;1.90;;;14.50;58.10;15.30;101456.00;;;;5030023;28;20193;-50
2023/04/05 03:22:03;;;;;;;1.83;1.73;;;14.50;58.10;15.30;101460.00;;;;5029969;28;20175;-50
2023/04/05 03:24:29;;;;;;;2.00;1.90;;;14.50;58.00;15.30;101458.00;;;;5029798;28;20540;-51
2023/04/05 03:26:55;;;;;;;1.80;1.70;;;14.50;58.00;15.30;101461.00;;;;5029599;28;20281;-50
2023/04/05 03:29:21;;;;;;;1.77;1.67;;;14.50;58.30;15.30;101469.00;;;;5028381;28;20261;-50
2023/04/05 03:31:48;;;;;;;3.67;1.97;;;14.50;58.40;15.30;101460.00;;;;5029048;28;20203;-50
2023/04/05 03:34:14;;;;;;;1.90;1.80;;;14.40;58.80;15.30;101461.00;;;;5029657;28;20199;-50
2023/04/05 03:36:42;;;;;;;2.13;1.93;;;14.40;58.40;15.30;101448.00;;;;5029544;28;20660;-51
2023/04/05 03:39:11;;;;;;;1.83;1.73;;;14.40;58.20;15.20;101446.00;;;;5029579;28;20228;-51
2023/04/05 03:41:38;;;;;;;2.10;1.83;;;14.40;58.40;15.20;101448.00;;;;5029552;28;20186;-50
2023/04/05 03:44:04;;;;;;;2.00;1.80;;;14.30;58.40;15.20;101441.00;;;;5029417;28;20284;-49
2023/04/05 03:46:30;;;;;;;2.10;1.83;;;14.30;58.20;15.20;101451.00;;;;5039748;28;20229;-50
2023/04/05 03:48:57;;;;;;;2.20;1.80;;;14.30;58.30;15.20;101441.00;;;;5037486;28;20175;-49
2023/04/05 03:51:23;;;;;;;2.30;1.80;;;14.20;58.30;15.20;101436.00;;;;5030450;28;20178;-50
2023/04/05 03:53:50;;;;;;;2.50;1.90;;;14.30;58.30;15.10;101427.00;;;;5030182;28;20190;-50
2023/04/05 03:56:15;;;;;;;2.00;1.90;;;14.30;58.20;15.10;101428.00;;;;5030498;28;20209;-50
2023/04/05 03:58:41;;;;;;;2.20;2.00;;;14.30;58.00;15.10;101444.00;;;;5030496;28;20202;-50
2023/04/05 04:01:07;;;;;;;1.90;1.80;;;14.30;57.90;15.10;101437.00;;;;5030508;28;20179;-49
2023/04/05 04:03:33;;;;;;;1.90;1.80;;;14.30;57.80;15.10;101432.00;;;;5030165;28;20211;-50
2023/04/05 04:05:58;;;;;;;2.20;2.00;;;14.30;57.80;15.10;101428.00;;;;5041507;28;20274;-52
2023/04/05 04:08:25;;;;;;;3.20;1.90;;;14.30;57.80;15.10;101427.00;;;;5034633;28;20206;-50
2023/04/05 04:10:51;;;;;;;1.97;1.83;;;14.30;57.80;15.10;101434.00;;;;5031471;28;20167;-50
2023/04/05 04:13:18;;;;;;;2.10;1.90;;;14.30;57.70;15.10;101432.00;;;;5031369;28;20274;-50
2023/04/05 04:15:44;;;;;;;2.00;1.90;;;14.30;57.70;15.10;101428.00;;;;5030860;28;20171;-51
2023/04/05 04:18:10;;;;;;;1.90;1.80;;;14.20;57.50;15.10;101430.00;;;;5033402;28;20278;-52
2023/04/05 04:20:37;;;;;;;3.97;2.00;;;14.20;57.60;15.00;101426.00;;;;5033397;28;20638;-50
2023/04/05 04:23:03;;;;;;;1.90;1.80;;;14.10;57.60;15.00;101428.00;;;;5025115;28;20561;-50
2023/04/05 04:25:29;;;;;;;2.27;1.80;;;14.10;57.80;14.70;101429.00;;;;5030091;28;20186;-51
2023/04/05 04:27:55;;;;;;;3.97;1.83;;;14.10;57.80;15.00;101430.00;;;;5029604;28;20206;-51
2023/04/05 04:30:21;;;;;;;3.00;2.07;;;14.10;57.60;15.00;101425.00;;;;5029485;28;20178;-50
2023/04/05 04:32:53;;;;;;;3.03;2.00;;;14.10;57.80;14.90;101423.00;;;;5027891;28;20201;-50
2023/04/05 04:35:27;;;;;;;6.33;2.00;;;14.20;57.80;14.90;101434.00;;;;5027579;28;20214;-50
2023/04/05 04:38:01;;;;;;;5.50;2.00;;;14.10;57.80;14.90;101440.00;;;;5030006;28;20241;-50
2023/04/05 04:40:28;;;;;;;4.33;1.83;;;14.10;58.10;14.90;101427.00;;;;5029423;28;20175;-52
2023/04/05 04:42:57;;;;;;;2.33;2.00;;;14.10;58.20;14.90;101429.00;;;;5030587;28;20210;-50
2023/04/05 04:45:23;;;;;;;2.80;2.23;;;14.10;58.20;14.90;101424.00;;;;5033361;28;20171;-50
2023/04/05 04:47:48;;;;;;;4.53;1.90;;;14.10;58.00;14.90;101431.00;;;;5049241;28;20554;-50
2023/04/05 04:50:15;;;;;;;5.17;1.90;;;14.10;57.90;14.90;101430.00;;;;5032848;28;20182;-50
2023/04/05 04:52:41;;;;;;;4.37;2.20;;;14.10;57.80;14.90;101438.00;;;;5032954;28;20659;-51
2023/04/05 04:55:13;;;;;;;8.87;2.30;;;14.10;57.80;14.90;101436.00;;;;5032837;28;20190;-50
2023/04/05 04:57:40;;;;;;;6.03;2.40;;;14.10;57.80;14.80;101434.00;;;;5033560;28;20595;-50
2023/04/05 05:00:13;;;;;;;11.50;2.60;;;14.00;57.80;14.80;101446.00;;;;5032103;28;20190;-50
2023/04/05 05:02:41;;;;;;;19.57;4.47;;;14.00;57.80;14.80;101437.00;;;;5032910;28;20215;-52
2023/04/05 05:05:07;;;;;;;19.60;3.77;;;14.00;58.10;14.80;101436.00;;;;5018345;28;20630;-51
2023/04/05 05:07:33;;;;;;;11.77;3.83;;;14.00;58.10;14.80;101434.00;;;;5035005;28;20236;-51
2023/04/05 05:09:59;;;;;;;14.67;3.73;;;14.00;57.90;14.80;101445.00;;;;5033281;28;20175;-51
2023/04/05 05:12:25;;;;;;;18.83;3.93;;;14.00;58.00;14.80;101371.00;;;;5032274;28;20627;-50
2023/04/05 05:14:51;;;;;;;8.27;3.20;;;14.00;57.80;14.70;101447.00;;;;5032901;28;20278;-49
2023/04/05 05:17:17;;;;;;;14.40;3.57;;;14.00;57.70;14.70;101447.00;;;;5033122;28;20183;-51
2023/04/05 05:19:44;;;;;;;16.13;3.90;;;13.90;57.60;14.70;101447.00;;;;5032288;28;20236;-50
2023/04/05 05:22:10;;;;;;;13.33;3.77;;;13.90;57.50;14.70;101441.00;;;;5032863;28;20198;-50
2023/04/05 05:24:36;;;;;;;12.67;3.67;;;13.90;57.30;14.70;101440.00;;;;5022097;28;20195;-49
2023/04/05 05:27:01;;;;;;;10.30;3.73;;;13.90;57.40;14.70;101445.00;;;;5022948;28;20203;-50
2023/04/05 05:29:27;;;;;;;7.17;3.50;;;13.80;57.60;14.60;101440.00;;;;5032355;28;20183;-50
2023/04/05 05:31:54;;;;;;;10.30;3.67;;;13.80;57.70;14.60;101434.00;;;;5032519;28;20177;-50
2023/04/05 05:34:20;;;;;;;12.83;3.67;;;13.80;57.70;14.60;101438.00;;;;5031729;28;20195;-51
2023/04/05 05:36:46;;;;;;;6.97;3.50;;;13.90;57.70;14.60;101437.00;;;;5032678;28;20181;-49
2023/04/05 05:39:12;;;;;;;9.70;3.60;;;13.80;57.60;14.60;101439.00;;;;5032682;28;20167;-50
2023/04/05 05:41:37;;;;;;;7.73;3.50;;;13.90;57.60;14.60;101441.00;;;;5031967;28;20653;-50
2023/04/05 05:44:04;;;;;;;8.43;3.17;;;14.00;57.70;14.60;101440.00;;;;5031702;28;20195;-49
2023/04/05 05:46:30;;;;;;;6.93;3.30;;;14.00;57.70;14.70;101444.00;;;;5032587;28;20263;-49
2023/04/05 05:48:55;;;;;;;8.30;3.30;;;14.10;57.70;14.70;101439.00;;;;5032049;28;20175;-49
2023/04/05 05:51:21;;;;;;;4.23;2.90;;;14.20;57.60;14.80;101439.00;;;;5031814;28;20248;-52
2023/04/05 05:53:47;;;;;;;9.57;3.00;;;14.30;58.20;14.90;101443.00;;;;5030023;28;20214;-49
2023/04/05 05:56:13;;;;;;;5.03;3.10;;;14.40;57.50;14.90;101448.00;;;;5031119;28;20186;-49
2023/04/05 05:58:38;;;;;;;5.37;2.80;;;14.50;58.00;15.00;101455.00;;;;5031181;28;20598;-49
2023/04/05 06:01:06;;;;;;;5.73;2.73;;;14.70;57.40;15.10;101443.00;;;;5037772;28;20738;-50
2023/04/05 06:03:32;;;;;;;6.50;3.07;;;14.70;57.30;15.20;101450.00;;;;5046594;28;20195;-52
2023/04/05 06:05:58;;;;;;;6.57;3.10;;;14.90;57.20;15.30;101451.00;;;;5033184;28;20171;-51
2023/04/05 06:08:26;;;;;;;4.40;2.83;;;15.00;57.10;15.40;101447.00;;;;5034340;28;20217;-51
2023/04/05 06:10:52;;;;;;;7.03;2.90;;;15.20;57.00;15.50;101446.00;;;;5032248;28;21014;-51
2023/04/05 06:13:18;;;;;;;5.70;2.70;;;15.30;57.00;15.60;101447.00;;;;5032030;28;20305;-53
2023/04/05 06:15:44;;;;;;;4.50;2.60;;;15.40;56.90;15.70;101444.00;;;;5041452;28;20202;-51
2023/04/05 06:18:09;;;;;;;4.93;2.70;;;15.60;56.90;15.80;101436.00;;;;5046512;28;20195;-50
2023/04/05 06:20:39;;;;;;;5.60;2.50;;;15.60;56.70;15.80;101431.00;;;;5033169;28;20254;-49
2023/04/05 06:23:08;;;;;;;5.10;2.60;;;15.70;56.70;15.90;101437.00;;;;5032308;28;20186;-50
2023/04/05 06:25:34;;;;;;;4.33;2.50;;;15.80;56.80;16.00;101428.00;;;;5030637;28;20190;-51
2023/04/05 06:28:01;;;;;;;5.07;2.83;;;15.80;56.70;16.10;101436.00;;;;5030640;28;20210;-50
2023/04/05 06:30:27;;;;;;;4.20;2.47;;;15.90;56.80;16.20;101431.00;;;;5030406;28;20183;-50
2023/04/05 06:32:53;;;;;;;4.53;2.50;;;16.00;56.70;16.20;101443.00;;;;5032240;28;20245;-51
2023/04/05 06:35:22;;;;;;;3.03;2.30;;;16.00;56.70;16.30;101436.00;;;;5031602;28;20771;-50
2023/04/05 06:37:48;;;;;;;3.83;2.60;;;16.10;56.90;16.30;101436.00;;;;5039667;28;20179;-51
2023/04/05 06:40:14;;;;;;;2.90;2.27;;;16.10;56.90;16.40;101449.00;;;;5042344;28;20179;-51
2023/04/05 06:42:40;;;;;;;3.67;2.20;;;16.10;56.90;16.40;101434.00;;;;5041811;28;20313;-50
2023/04/05 06:45:06;;;;;;;3.80;2.50;;;16.20;56.90;16.50;101437.00;;;;5035161;28;20253;-51
2023/04/05 06:47:34;;;;;;;3.13;2.50;;;16.20;56.90;16.50;101442.00;;;;5031240;28;20191;-50
2023/04/05 06:50:01;;;;;;;3.87;2.40;;;16.20;57.00;16.50;101436.00;;;;5030887;28;20179;-50
2023/04/05 06:52:27;;;;;;;4.77;2.47;;;16.20;57.10;16.60;101441.00;;;;5030384;28;20266;-50
2023/04/05 06:54:53;;;;;;;3.90;2.70;;;16.20;57.20;16.60;101445.00;;;;5014275;28;20191;-50
2023/04/05 06:57:19;;;;;;;3.73;2.50;;;16.30;57.20;16.60;101434.00;;;;5018633;28;20637;-51
2023/04/05 06:59:45;;;;;;;3.40;2.30;;;16.30;57.20;16.70;101441.00;;;;5020474;28;20186;-51
2023/04/05 07:02:11;;;;;;;5.70;2.73;;;16.30;57.20;16.70;101438.00;;;;5017781;28;20194;-52
2023/04/05 07:04:37;;;;;;;2.73;2.30;;;16.30;57.30;16.70;101441.00;;;;5026552;28;20242;-57
2023/04/05 07:07:03;;;;;;;3.67;2.47;;;16.30;57.30;16.70;101432.00;;;;5015244;28;20286;-50
2023/04/05 07:09:31;;;;;;;2.27;2.07;;;16.30;57.20;16.70;101440.00;;;;5010855;28;20262;-51
2023/04/05 07:11:58;;;;;;;3.53;2.20;;;16.30;57.40;16.80;101371.00;;;;5018746;28;20198;-51
2023/04/05 07:14:24;;;;;;;3.63;2.40;;;16.40;57.50;16.80;101430.00;;;;5030799;28;20219;-51
2023/04/05 07:16:51;;;;;;;2.73;2.27;;;16.40;57.50;16.80;101432.00;;;;5031478;28;20172;-50
2023/04/05 07:19:17;;;;;;;2.77;2.30;;;16.40;57.50;16.80;101426.00;;;;5031490;28;20179;-50
2023/04/05 07:21:43;;;;;;;2.47;2.20;;;16.40;57.50;16.80;101427.00;;;;5031340;28;20175;-51
2023/04/05 07:24:09;;;;;;;5.83;2.50;;;16.40;57.50;16.80;101432.00;;;;5030922;28;20193;-50
2023/04/05 07:26:36;;;;;;;2.30;2.10;;;16.40;57.70;16.80;101423.00;;;;5031452;28;20202;-50
2023/04/05 07:29:03;;;;;;;3.60;2.27;;;16.40;57.70;16.80;101429.00;;;;5029419;28;20206;-50
2023/04/05 07:31:30;;;;;;;3.70;2.17;;;16.50;57.80;16.90;101427.00;;;;5030606;28;20170;-50
2023/04/05 07:33:57;;;;;;;3.77;2.50;;;16.50;57.80;16.90;101349.00;;;;5030806;28;20191;-50
2023/04/05 07:36:23;;;;;;;4.23;2.17;;;16.50;57.80;16.90;101419.00;;;;5030652;28;20586;-51
2023/04/05 07:38:48;;;;;;;3.30;2.17;;;16.60;57.90;16.90;101437.00;;;;5020089;28;20162;-51
2023/04/05 07:41:17;;;;;;;7.27;2.57;;;16.60;57.80;16.90;101431.00;;;;5020636;28;20183;-50
2023/04/05 07:43:43;;;;;;;9.50;2.37;;;16.60;57.80;17.00;101440.00;;;;5022710;28;20287;-50
2023/04/05 07:46:08;;;;;;;8.97;2.70;;;16.60;57.80;17.00;101433.00;;;;5029842;28;20341;-52
2023/04/05 07:48:34;;;;;;;10.60;2.50;;;16.60;57.80;17.00;101434.00;;;;5029184;28;20852;-52
2023/04/05 07:51:07;;;;;;;10.97;2.90;;;16.60;57.80;17.00;101434.00;;;;5030170;28;20226;-50
2023/04/05 07:53:33;;;;;;;14.70;2.50;;;16.60;57.80;17.00;101425.00;;;;5029948;28;20418;-50
2023/04/05 07:56:06;;;;;;;10.43;2.77;;;16.70;57.80;17.00;101422.00;;;;5029933;28;20171;-52
2023/04/05 07:58:32;;;;;;;11.67;2.87;;;16.60;57.80;17.10;101429.00;;;;5030551;28;20222;-51
2023/04/05 08:01:02;;;;;;;7.23;2.50;;;16.70;57.90;17.10;101425.00;;;;5029715;28;20202;-51
2023/04/05 08:03:28;;;;;;;10.30;2.90;;;16.70;57.80;17.10;101428.00;;;;5045776;28;20298;-52
2023/04/05 08:05:54;;;;;;;10.73;2.87;;;16.80;58.00;17.10;101425.00;;;;5041165;28;20171;-51
2023/04/05 08:08:20;;;;;;;17.07;3.37;;;16.80;58.30;17.10;101397.00;;;;5032607;28;20179;-52
2023/04/05 08:10:46;;;;;;;12.03;2.83;;;16.80;58.70;17.20;101428.00;;;;5029646;28;20179;-51
2023/04/05 08:13:12;;;;;;;15.83;2.80;;;16.80;59.10;17.20;101424.00;;;;5029871;28;20627;-51
2023/04/05 08:15:39;;;;;;;13.23;4.33;;;16.80;59.30;17.20;101419.00;;;;5033260;28;20158;-52
2023/04/05 08:18:05;;;;;;;14.70;7.87;;;16.80;59.40;17.20;101413.00;;;;5039579;28;20187;-54
2023/04/05 08:20:30;;;;;;;30.47;11.27;;;16.80;59.70;17.20;101416.00;;;;5025607;28;20658;-51
2023/04/05 08:22:56;;;;;;;26.87;10.13;;;16.80;59.90;17.20;101419.00;;;;5029807;28;20216;-51
2023/04/05 08:25:22;;;;;;;27.37;9.97;;;16.80;59.90;17.20;101425.00;;;;5030320;28;20193;-50
2023/04/05 08:27:49;;;;;;;20.97;8.67;;;16.80;59.80;17.30;101422.00;;;;5030453;28;20245;-51
2023/04/05 08:30:15;;;;;;;20.97;8.63;;;16.70;59.70;17.30;101421.00;;;;5030364;28;20206;-49
2023/04/05 08:32:41;;;;;;;23.93;8.53;;;16.80;59.80;17.20;101424.00;;;;5030402;28;20171;-50
2023/04/05 08:35:07;;;;;;;21.53;8.17;;;16.70;59.70;17.30;101428.00;;;;5029188;28;20286;-50
2023/04/05 08:37:34;;;;;;;21.00;7.20;;;16.70;59.70;17.30;101416.00;;;;5030306;28;20193;-51
2023/04/05 08:40:00;;;;;;;19.83;6.83;;;16.80;59.70;17.30;101419.00;;;;5030067;28;20665;-51
2023/04/05 08:42:29;;;;;;;20.97;7.23;;;16.70;59.50;17.30;101425.00;;;;5029651;28;20175;-50
2023/04/05 08:44:56;;;;;;;18.03;6.67;;;16.80;59.50;17.30;101425.00;;;;5028719;28;20269;-50
2023/04/05 08:47:22;;;;;;;19.27;6.27;;;16.80;59.50;17.30;101413.00;;;;5028879;28;20291;-50
2023/04/05 08:49:48;;;;;;;19.80;6.70;;;16.80;59.40;17.30;101412.00;;;;5028572;28;20178;-49
2023/04/05 08:52:13;;;;;;;19.87;6.83;;;16.80;59.40;17.30;101427.00;;;;5029641;28;20174;-51
2023/04/05 08:54:39;;;;;;;20.97;7.00;;;16.80;59.30;17.30;101412.00;;;;5029540;28;20193;-51
2023/04/05 08:57:06;;;;;;;16.57;6.23;;;16.80;59.30;17.40;101427.00;;;;5028560;28;20175;-50
2023/04/05 08:59:34;;;;;;;17.47;6.33;;;16.90;59.40;17.30;101418.00;;;;5028718;28;20305;-51
2023/04/05 09:02:00;;;;;;;17.83;6.53;;;16.80;59.30;17.40;101410.00;;;;5029748;28;20175;-51
2023/04/05 09:04:27;;;;;;;18.00;6.33;;;16.90;59.40;17.40;101412.00;;;;5028283;28;20274;-51
2023/04/05 09:06:53;;;;;;;15.73;5.70;;;16.90;59.40;17.40;101419.00;;;;5028700;28;20206;-50
2023/04/05 09:09:20;;;;;;;15.07;5.47;;;16.90;59.40;17.40;101406.00;;;;5028745;28;20256;-51
2023/04/05 09:11:46;;;;;;;12.13;5.30;;;16.90;59.30;17.40;101416.00;;;;5028739;28;20175;-50
2023/04/05 09:14:11;;;;;;;16.67;5.53;;;16.90;59.40;17.40;101401.00;;;;5028567;28;20206;-51
2023/04/05 09:16:39;;;;;;;15.60;5.43;;;16.90;59.40;17.40;101403.00;;;;5029665;28;20195;-51
2023/04/05 09:19:05;;;;;;;15.13;5.60;;;16.90;59.40;17.40;101411.00;;;;5029893;28;20175;-50
2023/04/05 09:22:01;;;;;;;11.93;5.73;;;16.90;59.30;17.50;101410.00;;;;5029886;28;20229;-50
2023/04/05 09:24:39;;;;;;;10.20;4.90;;;16.90;60.00;17.40;101399.00;;;;5029660;28;20579;-50
2023/04/05 09:27:16;;;;;;;12.63;5.23;;;16.90;59.40;17.40;101390.00;;;;5029621;28;20238;-50
2023/04/05 09:29:46;;;;;;;12.60;5.53;;;16.90;59.40;17.40;101402.00;;;;5036046;28;20181;-51
2023/04/05 09:32:12;;;;;;;10.53;5.07;;;16.90;59.40;17.40;101398.00;;;;5046051;28;20200;-51
2023/04/05 09:34:40;;;;;;;10.90;4.90;;;16.90;59.40;17.50;101392.00;;;;5034404;28;20233;-50
2023/04/05 09:37:19;;;;;;;12.10;5.13;;;16.90;59.50;17.50;101396.00;;;;5033166;28;20179;-50
2023/04/05 09:39:48;;;;;;;11.07;4.80;;;16.90;59.50;17.40;101385.00;;;;5033193;28;20206;-50
2023/04/05 09:42:15;;;;;;;9.47;4.60;;;16.90;59.40;17.50;101394.00;;;;5033055;28;20270;-52
2023/04/05 09:45:00;;;;;;;9.77;4.50;;;16.90;59.50;17.50;101394.00;;;;5033146;28;20635;-50
2023/04/05 09:47:33;;;;;;;12.37;4.77;;;16.90;59.50;17.50;101394.00;;;;5031718;28;20210;-51
2023/04/05 09:50:15;;;;;;;11.07;4.80;;;16.90;59.60;17.50;101399.00;;;;5032660;28;20183;-50
2023/04/05 09:52:42;;;;;;;11.17;4.60;;;16.90;59.70;17.50;101391.00;;;;5031416;28;20259;-49
2023/04/05 09:55:08;;;;;;;9.60;4.63;;;16.90;59.80;17.50;101386.00;;;;5029584;28;20196;-52
2023/04/05 09:57:38;;;;;;;8.67;4.40;;;16.90;60.00;17.50;101387.00;;;;5032309;28;20587;-51
2023/04/05 10:00:16;;;;;;;8.70;4.40;;;16.90;60.10;17.50;101392.00;;;;5032406;28;20210;-52
2023/04/05 10:02:42;;;;;;;10.23;4.40;;;16.90;60.30;17.50;101395.00;;;;5030865;28;20194;-50
2023/04/05 10:05:14;;;;;;;10.47;4.30;;;17.00;60.20;17.50;101395.00;;;;5041888;28;20214;-51
2023/04/05 10:07:40;;;;;;;9.87;4.37;;;17.00;60.20;17.50;101383.00;;;;5049470;28;20206;-49
2023/04/05 10:10:08;;;;;;;12.77;4.60;;;17.00;60.20;17.50;101393.00;;;;5037338;28;20179;-49
2023/04/05 10:12:40;;;;;;;11.17;4.10;;;17.00;60.20;17.60;101380.00;;;;5034108;28;20772;-49
2023/04/05 10:15:10;;;;;;;9.50;4.03;;;17.00;60.10;17.60;101373.00;;;;5033589;28;20204;-52
2023/04/05 10:17:52;;;;;;;13.10;4.57;;;17.00;60.20;17.60;101374.00;;;;5034489;28;20265;-49
2023/04/05 10:20:24;;;;;;;10.90;4.13;;;17.00;60.20;17.60;101383.00;;;;5044546;28;20171;-49
2023/04/05 10:23:04;;;;;;;10.67;4.00;;;17.00;60.20;17.60;101376.00;;;;5045919;28;20638;-49
2023/04/05 10:25:51;;;;;;;13.00;4.37;;;17.00;60.20;17.60;101387.00;;;;5031734;28;20190;-50
2023/04/05 10:28:36;;;;;;;11.07;4.40;;;17.00;60.20;17.60;101383.00;;;;5033944;28;20215;-52
2023/04/05 10:31:17;;;;;;;12.57;4.00;;;17.00;60.20;17.60;101378.00;;;;5032814;28;20175;-49
2023/04/05 10:33:46;;;;;;;9.13;4.30;;;17.00;60.20;17.60;101377.00;;;;5032129;28;20202;-49
2023/04/05 10:36:45;;;;;;;12.13;4.37;;;17.00;60.30;17.60;101373.00;;;;5032357;28;20179;-49
2023/04/05 10:39:33;;;;;;;11.90;3.90;;;17.00;60.30;17.60;101368.00;;;;5032320;28;20176;-49
2023/04/05 10:42:30;;;;;;;9.33;4.03;;;17.00;60.20;17.60;101366.00;;;;5031843;28;20179;-50
2023/04/05 10:45:03;;;;;;;11.20;4.43;;;17.00;60.20;17.50;101361.00;;;;5050217;28;20203;-50
2023/04/05 10:47:30;;;;;;;12.67;4.17;;;17.00;60.30;17.60;101358.00;;;;5041483;28;20214;-51
2023/04/05 10:49:56;;;;;;;10.67;3.70;;;17.00;60.30;17.60;101359.00;;;;5039217;28;20179;-49